East Leroy, Michigan
Current Conditions -  °F | °C
As of 5:40 AM on Saturday 22 Nov 2014 (Local Time) from KBTL Reporting Station
Freezing Rain Freezing Rain  
Wind Chill: 22°   Ceiling: 1400
Heat Index: 33°   Visibility: 9mi
Dew Point: 26°   Wind: 17mph
Humidity: 75%   Direction: 200°SSW
Pressure: 30.1"   Gusts: NA
Location:  42.17°N, 85.22°W
Report Text: KBTL 221040Z 20015KT 9SM -FZRA OVC014 01/M03 A3010 RMK AO2 RAE18FZRAB18 P0002 I1002 T00061033
Loading
Personal Weather Stations






























Interactive Weather Map New forecast layout! Learn more

10-Day Weather Forecast

Advertisements
Track Severe Weather on mobile